sensor_id;sensor_type;location;lat;lon;timestamp;pressure;altitude;pressure_sealevel;temperature;humidity
6132;BME280;3097;42.692;23.278;2024-01-16T00:01:45;93523.44;;;4.92;77.12
6132;BME280;3097;42.692;23.278;2024-01-16T00:04:11;93547.41;;;4.91;78.10
6132;BME280;3097;42.692;23.278;2024-01-16T00:06:43;93527.97;;;4.90;77.61
6132;BME280;3097;42.692;23.278;2024-01-16T00:09:09;93555.06;;;4.91;77.18
6132;BME280;3097;42.692;23.278;2024-01-16T00:11:41;93537.06;;;4.86;77.57
6132;BME280;3097;42.692;23.278;2024-01-16T00:14:06;93548.16;;;4.80;77.72
6132;BME280;3097;42.692;23.278;2024-01-16T00:16:32;93543.06;;;4.80;77.88
6132;BME280;3097;42.692;23.278;2024-01-16T00:18:58;93534.72;;;4.85;78.05
6132;BME280;3097;42.692;23.278;2024-01-16T00:21:23;93548.06;;;4.87;78.06
6132;BME280;3097;42.692;23.278;2024-01-16T00:23:49;93543.22;;;4.67;78.38
6132;BME280;3097;42.692;23.278;2024-01-16T00:26:21;93546.34;;;4.69;79.07
6132;BME280;3097;42.692;23.278;2024-01-16T00:28:46;93553.72;;;4.89;78.78
6132;BME280;3097;42.692;23.278;2024-01-16T00:31:12;93542.41;;;4.85;77.93
6132;BME280;3097;42.692;23.278;2024-01-16T00:33:38;93560.25;;;4.85;77.33
6132;BME280;3097;42.692;23.278;2024-01-16T00:36:04;93561.38;;;4.89;78.79
6132;BME280;3097;42.692;23.278;2024-01-16T00:38:32;93558.91;;;4.82;79.27
6132;BME280;3097;42.692;23.278;2024-01-16T00:40:58;93558.06;;;4.88;78.65
6132;BME280;3097;42.692;23.278;2024-01-16T00:43:24;93555.72;;;4.87;77.89
6132;BME280;3097;42.692;23.278;2024-01-16T00:45:50;93536.44;;;4.61;78.42
6132;BME280;3097;42.692;23.278;2024-01-16T00:48:15;93556.75;;;4.67;79.16
6132;BME280;3097;42.692;23.278;2024-01-16T00:50:41;93529.94;;;4.65;79.69
6132;BME280;3097;42.692;23.278;2024-01-16T00:53:07;93565.56;;;4.72;79.55
6132;BME280;3097;42.692;23.278;2024-01-16T00:55:32;93568.09;;;4.72;80.63
6132;BME280;3097;42.692;23.278;2024-01-16T00:57:58;93556.03;;;4.79;79.39
6132;BME280;3097;42.692;23.278;2024-01-16T01:00:24;93571.25;;;4.85;79.43
6132;BME280;3097;42.692;23.278;2024-01-16T01:02:49;93576.94;;;4.87;79.44
6132;BME280;3097;42.692;23.278;2024-01-16T01:05:15;93596.91;;;4.90;79.71
6132;BME280;3097;42.692;23.278;2024-01-16T01:07:40;93565.47;;;4.78;79.74
6132;BME280;3097;42.692;23.278;2024-01-16T01:10:06;93591.25;;;4.88;79.66
6132;BME280;3097;42.692;23.278;2024-01-16T01:12:32;93602.09;;;4.84;79.90
6132;BME280;3097;42.692;23.278;2024-01-16T01:14:57;93594.81;;;4.99;80.31
6132;BME280;3097;42.692;23.278;2024-01-16T01:17:23;93576.25;;;4.92;79.95
6132;BME280;3097;42.692;23.278;2024-01-16T01:19:48;93570.88;;;4.70;80.23
6132;BME280;3097;42.692;23.278;2024-01-16T01:22:14;93576.88;;;4.76;80.85
6132;BME280;3097;42.692;23.278;2024-01-16T01:24:39;93571.69;;;4.82;80.77
6132;BME280;3097;42.692;23.278;2024-01-16T01:27:05;93578.66;;;4.75;81.47
6132;BME280;3097;42.692;23.278;2024-01-16T01:29:31;93573.25;;;4.83;81.66
6132;BME280;3097;42.692;23.278;2024-01-16T01:31:57;93565.38;;;4.85;80.39
6132;BME280;3097;42.692;23.278;2024-01-16T01:34:23;93573.44;;;4.82;80.84
6132;BME280;3097;42.692;23.278;2024-01-16T01:36:48;93575.56;;;4.73;80.44
6132;BME280;3097;42.692;23.278;2024-01-16T01:39:14;93568.75;;;4.67;81.00
6132;BME280;3097;42.692;23.278;2024-01-16T01:41:40;93497.84;;;4.57;80.44
6132;BME280;3097;42.692;23.278;2024-01-16T01:44:06;93528.38;;;4.64;80.40
6132;BME280;3097;42.692;23.278;2024-01-16T01:46:32;93573.28;;;4.95;80.59
6132;BME280;3097;42.692;23.278;2024-01-16T01:48:59;93581.06;;;5.00;80.85
6132;BME280;3097;42.692;23.278;2024-01-16T01:51:25;93570.63;;;5.01;80.70
6132;BME280;3097;42.692;23.278;2024-01-16T01:53:51;93552.63;;;4.96;81.00
6132;BME280;3097;42.692;23.278;2024-01-16T01:56:18;93571.41;;;5.02;80.90
6132;BME280;3097;42.692;23.278;2024-01-16T01:58:47;93576.09;;;5.17;80.19
6132;BME280;3097;42.692;23.278;2024-01-16T02:01:14;93567.09;;;5.02;81.05
6132;BME280;3097;42.692;23.278;2024-01-16T02:03:42;93575.66;;;5.20;80.98
6132;BME280;3097;42.692;23.278;2024-01-16T02:06:08;93552.44;;;5.10;80.33
6132;BME280;3097;42.692;23.278;2024-01-16T02:08:34;93564.69;;;5.31;79.91
6132;BME280;3097;42.692;23.278;2024-01-16T02:11:00;93581.78;;;5.19;80.18
6132;BME280;3097;42.692;23.278;2024-01-16T02:13:26;93565.22;;;5.21;80.77
6132;BME280;3097;42.692;23.278;2024-01-16T02:15:51;93576.66;;;5.19;81.06
6132;BME280;3097;42.692;23.278;2024-01-16T02:18:17;93576.22;;;5.22;81.09
6132;BME280;3097;42.692;23.278;2024-01-16T02:20:43;93550.88;;;5.09;80.91
6132;BME280;3097;42.692;23.278;2024-01-16T02:23:10;93575.53;;;5.26;80.16
6132;BME280;3097;42.692;23.278;2024-01-16T02:25:39;93613.31;;;5.24;81.02
6132;BME280;3097;42.692;23.278;2024-01-16T02:28:05;93609.22;;;5.35;80.42
6132;BME280;3097;42.692;23.278;2024-01-16T02:30:30;93596.22;;;5.25;80.62
6132;BME280;3097;42.692;23.278;2024-01-16T02:32:56;93600.34;;;5.26;79.92
6132;BME280;3097;42.692;23.278;2024-01-16T02:35:21;93610.66;;;5.31;80.55
6132;BME280;3097;42.692;23.278;2024-01-16T02:37:47;93599.41;;;5.20;81.29
6132;BME280;3097;42.692;23.278;2024-01-16T02:40:12;93613.78;;;5.33;81.39
6132;BME280;3097;42.692;23.278;2024-01-16T02:42:38;93618.53;;;5.29;81.83
6132;BME280;3097;42.692;23.278;2024-01-16T02:45:05;93614.22;;;5.41;81.12
6132;BME280;3097;42.692;23.278;2024-01-16T02:47:31;93617.75;;;5.29;81.64
6132;BME280;3097;42.692;23.278;2024-01-16T02:49:56;93624.06;;;5.15;81.79
6132;BME280;3097;42.692;23.278;2024-01-16T02:52:22;93641.97;;;5.26;82.10
6132;BME280;3097;42.692;23.278;2024-01-16T02:54:48;93662.22;;;5.39;83.05
6132;BME280;3097;42.692;23.278;2024-01-16T02:57:14;93662.75;;;5.30;84.39
6132;BME280;3097;42.692;23.278;2024-01-16T02:59:39;93687.31;;;5.42;86.38
6132;BME280;3097;42.692;23.278;2024-01-16T03:02:05;93692.69;;;5.41;92.21
6132;BME280;3097;42.692;23.278;2024-01-16T03:04:30;93686.78;;;5.40;93.94
6132;BME280;3097;42.692;23.278;2024-01-16T03:06:56;93686.00;;;5.40;94.83
6132;BME280;3097;42.692;23.278;2024-01-16T03:09:21;93704.66;;;5.40;96.24
6132;BME280;3097;42.692;23.278;2024-01-16T03:11:47;93693.97;;;5.32;97.52
6132;BME280;3097;42.692;23.278;2024-01-16T03:14:12;93729.97;;;5.42;98.54
6132;BME280;3097;42.692;23.278;2024-01-16T03:16:39;93736.13;;;5.41;99.16
6132;BME280;3097;42.692;23.278;2024-01-16T03:19:05;93752.66;;;5.38;99.28
6132;BME280;3097;42.692;23.278;2024-01-16T03:21:31;93748.16;;;5.34;99.41
6132;BME280;3097;42.692;23.278;2024-01-16T03:23:56;93725.22;;;5.16;99.14
6132;BME280;3097;42.692;23.278;2024-01-16T03:26:22;93769.78;;;5.20;98.96
6132;BME280;3097;42.692;23.278;2024-01-16T03:28:47;93764.69;;;5.01;99.01
6132;BME280;3097;42.692;23.278;2024-01-16T03:31:13;93780.94;;;5.07;99.74
6132;BME280;3097;42.692;23.278;2024-01-16T03:33:43;93787.69;;;5.01;98.93
6132;BME280;3097;42.692;23.278;2024-01-16T03:36:09;93786.31;;;4.99;99.50
6132;BME280;3097;42.692;23.278;2024-01-16T03:38:35;93803.28;;;4.93;99.12
6132;BME280;3097;42.692;23.278;2024-01-16T03:41:02;93802.56;;;4.86;98.31
6132;BME280;3097;42.692;23.278;2024-01-16T03:43:29;93810.38;;;4.91;97.67
6132;BME280;3097;42.692;23.278;2024-01-16T03:45:58;93810.97;;;4.68;97.83
6132;BME280;3097;42.692;23.278;2024-01-16T03:48:23;93807.84;;;4.66;97.66
6132;BME280;3097;42.692;23.278;2024-01-16T03:50:49;93816.47;;;4.72;97.94
6132;BME280;3097;42.692;23.278;2024-01-16T03:53:14;93818.50;;;4.63;97.49
6132;BME280;3097;42.692;23.278;2024-01-16T03:55:40;93812.75;;;4.50;95.89
6132;BME280;3097;42.692;23.278;2024-01-16T03:58:05;93853.50;;;4.56;96.30
6132;BME280;3097;42.692;23.278;2024-01-16T04:00:31;93854.91;;;4.52;96.55
6132;BME280;3097;42.692;23.278;2024-01-16T04:02:57;93868.69;;;4.45;96.16
6132;BME280;3097;42.692;23.278;2024-01-16T04:05:22;93881.09;;;4.41;96.24
6132;BME280;3097;42.692;23.278;2024-01-16T04:07:48;93869.53;;;4.39;94.88
6132;BME280;3097;42.692;23.278;2024-01-16T04:10:13;93889.88;;;4.20;94.67
6132;BME280;3097;42.692;23.278;2024-01-16T04:12:39;93906.44;;;4.05;95.28
6132;BME280;3097;42.692;23.278;2024-01-16T04:15:05;93894.50;;;3.99;95.80
6132;BME280;3097;42.692;23.278;2024-01-16T04:17:30;93897.44;;;4.02;96.14
6132;BME280;3097;42.692;23.278;2024-01-16T04:19:56;93903.50;;;4.01;95.11
6132;BME280;3097;42.692;23.278;2024-01-16T04:22:21;93901.00;;;3.95;94.87
6132;BME280;3097;42.692;23.278;2024-01-16T04:24:47;93901.03;;;3.88;95.42
6132;BME280;3097;42.692;23.278;2024-01-16T04:27:13;93902.81;;;3.87;94.58
6132;BME280;3097;42.692;23.278;2024-01-16T04:29:38;93909.66;;;3.87;95.38
6132;BME280;3097;42.692;23.278;2024-01-16T04:32:04;93910.72;;;3.73;94.48
6132;BME280;3097;42.692;23.278;2024-01-16T04:34:29;93922.28;;;3.69;95.01
6132;BME280;3097;42.692;23.278;2024-01-16T04:36:55;93883.97;;;3.44;94.52
6132;BME280;3097;42.692;23.278;2024-01-16T04:39:21;93918.81;;;3.57;94.81
6132;BME280;3097;42.692;23.278;2024-01-16T04:41:51;93887.16;;;3.26;94.72
6132;BME280;3097;42.692;23.278;2024-01-16T04:44:18;93920.44;;;3.38;94.85
6132;BME280;3097;42.692;23.278;2024-01-16T04:46:43;93959.97;;;3.60;95.26
6132;BME280;3097;42.692;23.278;2024-01-16T04:49:11;93969.59;;;3.52;94.58
6132;BME280;3097;42.692;23.278;2024-01-16T04:51:37;93976.25;;;3.46;94.49
6132;BME280;3097;42.692;23.278;2024-01-16T04:54:03;93984.50;;;3.35;94.33
6132;BME280;3097;42.692;23.278;2024-01-16T04:56:28;93956.94;;;3.05;94.45
6132;BME280;3097;42.692;23.278;2024-01-16T04:58:54;94007.03;;;3.31;94.43
6132;BME280;3097;42.692;23.278;2024-01-16T05:01:19;94009.38;;;3.33;94.43
6132;BME280;3097;42.692;23.278;2024-01-16T05:03:45;94014.88;;;3.36;94.42
6132;BME280;3097;42.692;23.278;2024-01-16T05:06:14;93990.19;;;3.24;93.72
6132;BME280;3097;42.692;23.278;2024-01-16T05:08:41;94033.47;;;3.43;93.93
6132;BME280;3097;42.692;23.278;2024-01-16T05:11:07;94034.28;;;3.44;93.01
6132;BME280;3097;42.692;23.278;2024-01-16T05:13:32;94033.88;;;3.27;93.36
6132;BME280;3097;42.692;23.278;2024-01-16T05:15:58;94036.03;;;3.24;94.76
6132;BME280;3097;42.692;23.278;2024-01-16T05:18:24;94045.44;;;3.36;93.54
6132;BME280;3097;42.692;23.278;2024-01-16T05:20:49;94057.97;;;3.38;93.25
6132;BME280;3097;42.692;23.278;2024-01-16T05:23:15;94073.25;;;3.44;92.41
6132;BME280;3097;42.692;23.278;2024-01-16T05:25:40;94076.38;;;3.46;92.07
6132;BME280;3097;42.692;23.278;2024-01-16T05:28:06;94088.72;;;3.56;90.83
6132;BME280;3097;42.692;23.278;2024-01-16T05:30:32;94069.53;;;3.34;91.09
6132;BME280;3097;42.692;23.278;2024-01-16T05:32:58;94096.19;;;3.58;90.19
6132;BME280;3097;42.692;23.278;2024-01-16T05:35:27;94096.00;;;3.53;89.39
6132;BME280;3097;42.692;23.278;2024-01-16T05:37:53;94107.34;;;3.50;90.16
6132;BME280;3097;42.692;23.278;2024-01-16T05:40:19;94114.38;;;3.55;90.19
6132;BME280;3097;42.692;23.278;2024-01-16T05:42:45;94128.91;;;3.61;88.29
6132;BME280;3097;42.692;23.278;2024-01-16T05:45:10;94145.38;;;3.58;87.13
6132;BME280;3097;42.692;23.278;2024-01-16T05:47:36;94142.22;;;3.49;86.30
6132;BME280;3097;42.692;23.278;2024-01-16T05:50:02;94131.25;;;3.36;87.37
6132;BME280;3097;42.692;23.278;2024-01-16T05:52:27;94152.41;;;3.56;87.10
6132;BME280;3097;42.692;23.278;2024-01-16T05:54:53;94161.44;;;3.59;86.14
6132;BME280;3097;42.692;23.278;2024-01-16T05:57:22;94148.28;;;3.35;87.00
6132;BME280;3097;42.692;23.278;2024-01-16T05:59:48;94175.75;;;3.60;86.30
6132;BME280;3097;42.692;23.278;2024-01-16T06:02:13;94187.28;;;3.56;86.55
6132;BME280;3097;42.692;23.278;2024-01-16T06:04:39;94172.19;;;3.41;87.43
6132;BME280;3097;42.692;23.278;2024-01-16T06:07:05;94186.31;;;3.63;88.13
6132;BME280;3097;42.692;23.278;2024-01-16T06:09:38;94195.53;;;3.77;87.38
6132;BME280;3097;42.692;23.278;2024-01-16T06:12:05;94194.97;;;3.82;86.41
6132;BME280;3097;42.692;23.278;2024-01-16T06:14:32;94185.16;;;3.66;86.83
6132;BME280;3097;42.692;23.278;2024-01-16T06:16:58;94197.72;;;3.67;86.32
6132;BME280;3097;42.692;23.278;2024-01-16T06:19:24;94188.69;;;3.65;85.35
6132;BME280;3097;42.692;23.278;2024-01-16T06:21:49;94237.28;;;3.70;84.82
6132;BME280;3097;42.692;23.278;2024-01-16T06:24:15;94217.25;;;3.40;85.43
6132;BME280;3097;42.692;23.278;2024-01-16T06:26:40;94247.66;;;3.55;85.35
6132;BME280;3097;42.692;23.278;2024-01-16T06:29:07;94251.78;;;3.49;84.53
6132;BME280;3097;42.692;23.278;2024-01-16T06:31:33;94225.66;;;3.21;84.55
6132;BME280;3097;42.692;23.278;2024-01-16T06:33:58;94266.06;;;3.37;84.18
6132;BME280;3097;42.692;23.278;2024-01-16T06:36:24;94275.81;;;3.27;84.50
6132;BME280;3097;42.692;23.278;2024-01-16T06:38:49;94281.28;;;3.24;85.14
6132;BME280;3097;42.692;23.278;2024-01-16T06:41:15;94272.63;;;3.19;83.37
6132;BME280;3097;42.692;23.278;2024-01-16T06:43:40;94282.50;;;2.94;83.28
6132;BME280;3097;42.692;23.278;2024-01-16T06:46:06;94294.44;;;2.93;84.41
6132;BME280;3097;42.692;23.278;2024-01-16T06:48:31;94295.63;;;2.91;84.13
6132;BME280;3097;42.692;23.278;2024-01-16T06:50:57;94206.66;;;2.35;84.59
6132;BME280;3097;42.692;23.278;2024-01-16T06:53:23;94310.50;;;2.94;84.44
6132;BME280;3097;42.692;23.278;2024-01-16T06:55:48;94325.00;;;2.93;84.45
6132;BME280;3097;42.692;23.278;2024-01-16T06:58:14;94321.28;;;2.96;84.92
6132;BME280;3097;42.692;23.278;2024-01-16T07:00:40;94337.97;;;2.98;85.61
6132;BME280;3097;42.692;23.278;2024-01-16T07:03:07;94343.16;;;3.18;84.77
6132;BME280;3097;42.692;23.278;2024-01-16T07:05:32;94343.19;;;3.31;84.41
6132;BME280;3097;42.692;23.278;2024-01-16T07:07:58;94321.66;;;3.27;84.59
6132;BME280;3097;42.692;23.278;2024-01-16T07:10:24;94360.13;;;3.45;84.19
6132;BME280;3097;42.692;23.278;2024-01-16T07:12:50;94366.88;;;3.66;83.65
6132;BME280;3097;42.692;23.278;2024-01-16T07:15:17;94380.00;;;3.63;82.95
6132;BME280;3097;42.692;23.278;2024-01-16T07:17:42;94366.25;;;3.58;82.39
6132;BME280;3097;42.692;23.278;2024-01-16T07:20:08;94398.06;;;3.68;81.81
6132;BME280;3097;42.692;23.278;2024-01-16T07:22:37;94400.59;;;3.68;82.76
6132;BME280;3097;42.692;23.278;2024-01-16T07:25:05;94387.59;;;3.57;81.44
6132;BME280;3097;42.692;23.278;2024-01-16T07:27:31;94337.25;;;3.11;80.93
6132;BME280;3097;42.692;23.278;2024-01-16T07:29:56;94418.78;;;3.59;80.85
6132;BME280;3097;42.692;23.278;2024-01-16T07:32:23;94429.59;;;3.61;82.15
6132;BME280;3097;42.692;23.278;2024-01-16T07:34:48;94432.94;;;3.68;81.83
6132;BME280;3097;42.692;23.278;2024-01-16T07:37:14;94438.25;;;3.73;81.37
6132;BME280;3097;42.692;23.278;2024-01-16T07:39:41;94406.81;;;3.53;80.36
6132;BME280;3097;42.692;23.278;2024-01-16T07:42:07;94412.06;;;3.44;80.42
6132;BME280;3097;42.692;23.278;2024-01-16T07:44:33;94443.31;;;3.66;80.75
6132;BME280;3097;42.692;23.278;2024-01-16T07:46:58;94441.53;;;3.60;80.73
6132;BME280;3097;42.692;23.278;2024-01-16T07:49:24;94448.72;;;3.50;81.27
6132;BME280;3097;42.692;23.278;2024-01-16T07:51:50;94449.69;;;3.49;81.35
6132;BME280;3097;42.692;23.278;2024-01-16T07:54:15;94463.81;;;3.45;82.43
6132;BME280;3097;42.692;23.278;2024-01-16T07:56:41;94474.06;;;3.58;82.77
6132;BME280;3097;42.692;23.278;2024-01-16T07:59:06;94474.66;;;3.60;82.30
6132;BME280;3097;42.692;23.278;2024-01-16T08:01:32;94474.69;;;3.67;81.24
6132;BME280;3097;42.692;23.278;2024-01-16T08:03:58;94472.72;;;3.69;80.62
6132;BME280;3097;42.692;23.278;2024-01-16T08:06:24;94488.88;;;3.76;80.64
6132;BME280;3097;42.692;23.278;2024-01-16T08:08:50;94486.72;;;3.79;81.12
6132;BME280;3097;42.692;23.278;2024-01-16T08:11:16;94480.59;;;3.67;80.40
6132;BME280;3097;42.692;23.278;2024-01-16T08:13:41;94498.31;;;3.82;79.44
6132;BME280;3097;42.692;23.278;2024-01-16T08:16:07;94504.56;;;3.79;79.73
6132;BME280;3097;42.692;23.278;2024-01-16T08:18:34;94514.91;;;3.71;79.66
6132;BME280;3097;42.692;23.278;2024-01-16T08:20:59;94527.47;;;3.73;80.78
6132;BME280;3097;42.692;23.278;2024-01-16T08:23:25;94533.78;;;3.83;80.43
6132;BME280;3097;42.692;23.278;2024-01-16T08:25:51;94517.44;;;3.71;80.61
6132;BME280;3097;42.692;23.278;2024-01-16T08:28:17;94534.03;;;3.88;79.36
6132;BME280;3097;42.692;23.278;2024-01-16T08:30:43;94519.44;;;3.76;80.65
6132;BME280;3097;42.692;23.278;2024-01-16T08:33:09;94557.56;;;3.91;77.40
6132;BME280;3097;42.692;23.278;2024-01-16T08:35:35;94559.47;;;3.82;78.35
6132;BME280;3097;42.692;23.278;2024-01-16T08:38:01;94562.97;;;3.74;76.97
6132;BME280;3097;42.692;23.278;2024-01-16T08:40:28;94569.81;;;3.74;78.51
6132;BME280;3097;42.692;23.278;2024-01-16T08:42:53;94579.78;;;3.69;77.62
6132;BME280;3097;42.692;23.278;2024-01-16T08:45:20;94587.72;;;3.53;77.43
6132;BME280;3097;42.692;23.278;2024-01-16T08:47:46;94585.69;;;3.20;78.78
6132;BME280;3097;42.692;23.278;2024-01-16T08:50:12;94596.09;;;3.25;79.67
6132;BME280;3097;42.692;23.278;2024-01-16T08:52:37;94593.59;;;3.32;79.33
6132;BME280;3097;42.692;23.278;2024-01-16T08:55:03;94587.13;;;3.29;79.34
6132;BME280;3097;42.692;23.278;2024-01-16T08:57:30;94597.25;;;3.44;78.74
6132;BME280;3097;42.692;23.278;2024-01-16T08:59:55;94609.38;;;3.42;79.71
6132;BME280;3097;42.692;23.278;2024-01-16T09:02:21;94606.13;;;3.55;78.09
6132;BME280;3097;42.692;23.278;2024-01-16T09:04:47;94602.00;;;3.54;78.14
6132;BME280;3097;42.692;23.278;2024-01-16T09:07:16;94603.97;;;3.52;78.36
6132;BME280;3097;42.692;23.278;2024-01-16T09:09:42;94565.03;;;3.36;78.74
6132;BME280;3097;42.692;23.278;2024-01-16T09:12:08;94595.66;;;3.71;78.90
6132;BME280;3097;42.692;23.278;2024-01-16T09:14:34;94558.91;;;3.52;77.89
6132;BME280;3097;42.692;23.278;2024-01-16T09:17:00;94576.38;;;3.62;77.24
6132;BME280;3097;42.692;23.278;2024-01-16T09:19:25;94611.28;;;3.89;78.11
6132;BME280;3097;42.692;23.278;2024-01-16T09:21:51;94567.81;;;3.69;76.49
6132;BME280;3097;42.692;23.278;2024-01-16T09:24:17;94615.09;;;3.72;76.60
6132;BME280;3097;42.692;23.278;2024-01-16T09:26:44;94613.56;;;3.77;77.38
6132;BME280;3097;42.692;23.278;2024-01-16T09:29:09;94625.97;;;3.87;78.32
6132;BME280;3097;42.692;23.278;2024-01-16T09:31:35;94616.47;;;4.02;76.36
6132;BME280;3097;42.692;23.278;2024-01-16T09:34:02;94611.81;;;4.06;76.59
6132;BME280;3097;42.692;23.278;2024-01-16T09:36:28;94612.38;;;4.08;74.35
6132;BME280;3097;42.692;23.278;2024-01-16T09:38:54;94595.28;;;4.02;75.95
6132;BME280;3097;42.692;23.278;2024-01-16T09:41:20;94576.09;;;4.06;76.29
6132;BME280;3097;42.692;23.278;2024-01-16T09:43:47;94619.41;;;4.34;76.33
6132;BME280;3097;42.692;23.278;2024-01-16T09:46:15;94611.59;;;4.42;75.22
6132;BME280;3097;42.692;23.278;2024-01-16T09:48:41;94630.88;;;4.51;74.48
6132;BME280;3097;42.692;23.278;2024-01-16T09:51:10;94613.00;;;4.51;72.88
6132;BME280;3097;42.692;23.278;2024-01-16T09:53:41;94627.41;;;4.65;72.20
6132;BME280;3097;42.692;23.278;2024-01-16T09:56:13;94630.94;;;4.71;71.55
6132;BME280;3097;42.692;23.278;2024-01-16T09:58:40;94628.13;;;4.59;70.58
6132;BME280;3097;42.692;23.278;2024-01-16T10:01:06;94618.66;;;4.46;71.44
6132;BME280;3097;42.692;23.278;2024-01-16T10:03:34;94616.13;;;4.46;73.69
6132;BME280;3097;42.692;23.278;2024-01-16T10:06:03;94615.78;;;4.56;72.46
6132;BME280;3097;42.692;23.278;2024-01-16T10:08:30;94611.28;;;4.64;72.45
6132;BME280;3097;42.692;23.278;2024-01-16T10:10:57;94619.56;;;4.73;71.33
6132;BME280;3097;42.692;23.278;2024-01-16T10:13:23;94604.84;;;4.75;70.81
6132;BME280;3097;42.692;23.278;2024-01-16T10:15:52;94562.34;;;4.48;70.66
6132;BME280;3097;42.692;23.278;2024-01-16T10:18:24;94617.03;;;4.73;70.50
6132;BME280;3097;42.692;23.278;2024-01-16T10:20:50;94622.31;;;4.72;71.63
6132;BME280;3097;42.692;23.278;2024-01-16T10:23:31;94631.94;;;4.76;70.51
6132;BME280;3097;42.692;23.278;2024-01-16T10:28:40;94610.00;;;4.41;70.81
6132;BME280;3097;42.692;23.278;2024-01-16T10:31:07;94648.50;;;4.46;69.29
6132;BME280;3097;42.692;23.278;2024-01-16T10:33:33;94643.25;;;4.19;70.18
6132;BME280;3097;42.692;23.278;2024-01-16T10:36:12;94633.28;;;4.24;71.64
6132;BME280;3097;42.692;23.278;2024-01-16T10:38:43;94634.31;;;4.37;72.45
6132;BME280;3097;42.692;23.278;2024-01-16T10:41:10;94632.22;;;4.47;72.91
6132;BME280;3097;42.692;23.278;2024-01-16T10:43:37;94621.09;;;4.61;72.17
6132;BME280;3097;42.692;23.278;2024-01-16T10:46:10;94636.88;;;4.84;72.36
6132;BME280;3097;42.692;23.278;2024-01-16T10:48:38;94637.50;;;4.99;71.38
6132;BME280;3097;42.692;23.278;2024-01-16T10:51:06;94633.63;;;5.17;71.35
6132;BME280;3097;42.692;23.278;2024-01-16T10:53:33;94624.03;;;5.25;69.16
6132;BME280;3097;42.692;23.278;2024-01-16T10:56:02;94613.81;;;5.25;68.22
6132;BME280;3097;42.692;23.278;2024-01-16T10:58:30;94622.66;;;5.36;70.50
6132;BME280;3097;42.692;23.278;2024-01-16T11:01:01;94619.72;;;5.39;70.43
6132;BME280;3097;42.692;23.278;2024-01-16T11:03:46;94626.03;;;5.63;70.63
6132;BME280;3097;42.692;23.278;2024-01-16T11:06:15;94631.31;;;5.74;68.40
6132;BME280;3097;42.692;23.278;2024-01-16T11:08:41;94629.56;;;5.75;69.30
6132;BME280;3097;42.692;23.278;2024-01-16T11:11:08;94637.81;;;5.83;69.52
6132;BME280;3097;42.692;23.278;2024-01-16T11:13:35;94644.13;;;5.94;67.05
6132;BME280;3097;42.692;23.278;2024-01-16T11:16:04;94658.13;;;5.92;66.39
6132;BME280;3097;42.692;23.278;2024-01-16T11:18:31;94648.84;;;5.77;66.40
6132;BME280;3097;42.692;23.278;2024-01-16T11:21:01;94645.69;;;5.62;67.19
6132;BME280;3097;42.692;23.278;2024-01-16T11:23:29;94611.06;;;5.47;67.82
6132;BME280;3097;42.692;23.278;2024-01-16T11:25:55;94651.19;;;5.72;66.54
6132;BME280;3097;42.692;23.278;2024-01-16T11:28:27;94652.94;;;5.72;67.52
6132;BME280;3097;42.692;23.278;2024-01-16T11:30:55;94646.47;;;5.69;67.41
6132;BME280;3097;42.692;23.278;2024-01-16T11:35:58;94644.53;;;5.78;67.56
6132;BME280;3097;42.692;23.278;2024-01-16T11:38:25;94645.09;;;5.73;66.77
6132;BME280;3097;42.692;23.278;2024-01-16T11:40:55;94649.22;;;5.48;67.38
6132;BME280;3097;42.692;23.278;2024-01-16T11:46:00;94655.69;;;5.37;69.31
6132;BME280;3097;42.692;23.278;2024-01-16T11:48:26;94658.44;;;5.36;70.26
6132;BME280;3097;42.692;23.278;2024-01-16T11:50:52;94667.88;;;5.42;70.01
6132;BME280;3097;42.692;23.278;2024-01-16T11:59:13;94658.41;;;5.16;67.36
6132;BME280;3097;42.692;23.278;2024-01-16T12:01:45;94657.78;;;5.07;68.07
6132;BME280;3097;42.692;23.278;2024-01-16T12:04:10;94668.78;;;5.01;68.00
6132;BME280;3097;42.692;23.278;2024-01-16T12:06:36;94677.38;;;4.94;68.18
6132;BME280;3097;42.692;23.278;2024-01-16T12:09:15;94675.81;;;4.93;68.49
6132;BME280;3097;42.692;23.278;2024-01-16T12:11:41;94678.09;;;4.81;68.25
6132;BME280;3097;42.692;23.278;2024-01-16T12:14:12;94640.66;;;4.47;69.42
6132;BME280;3097;42.692;23.278;2024-01-16T12:16:37;94691.66;;;4.82;69.40
6132;BME280;3097;42.692;23.278;2024-01-16T12:19:09;94676.31;;;4.75;68.77
6132;BME280;3097;42.692;23.278;2024-01-16T12:21:39;94670.63;;;4.73;70.05
6132;BME280;3097;42.692;23.278;2024-01-16T12:24:04;94657.00;;;4.59;69.13
6132;BME280;3097;42.692;23.278;2024-01-16T12:26:30;94672.13;;;4.61;69.62
6132;BME280;3097;42.692;23.278;2024-01-16T12:28:57;94691.44;;;4.70;69.36
6132;BME280;3097;42.692;23.278;2024-01-16T12:31:23;94688.66;;;4.65;70.43
6132;BME280;3097;42.692;23.278;2024-01-16T12:33:50;94677.66;;;4.64;70.38
6132;BME280;3097;42.692;23.278;2024-01-16T12:36:16;94693.41;;;4.75;70.85
6132;BME280;3097;42.692;23.278;2024-01-16T12:38:42;94690.88;;;4.81;69.54
6132;BME280;3097;42.692;23.278;2024-01-16T12:41:09;94697.84;;;5.00;69.15
6132;BME280;3097;42.692;23.278;2024-01-16T12:43:36;94682.78;;;4.71;69.54
6132;BME280;3097;42.692;23.278;2024-01-16T12:46:04;94705.47;;;4.87;69.19
6132;BME280;3097;42.692;23.278;2024-01-16T12:48:31;94700.50;;;4.79;69.05
6132;BME280;3097;42.692;23.278;2024-01-16T12:51:03;94704.44;;;4.82;70.57
6132;BME280;3097;42.692;23.278;2024-01-16T12:53:29;94696.81;;;4.88;69.24
6132;BME280;3097;42.692;23.278;2024-01-16T12:55:58;94688.38;;;4.88;68.53
6132;BME280;3097;42.692;23.278;2024-01-16T12:58:25;94681.28;;;4.90;69.05
6132;BME280;3097;42.692;23.278;2024-01-16T13:00:53;94700.53;;;4.86;69.77
6132;BME280;3097;42.692;23.278;2024-01-16T13:03:25;94692.38;;;5.03;69.94
6132;BME280;3097;42.692;23.278;2024-01-16T13:05:59;94698.63;;;5.01;70.08
6132;BME280;3097;42.692;23.278;2024-01-16T13:08:26;94700.25;;;5.15;68.55
6132;BME280;3097;42.692;23.278;2024-01-16T13:11:07;94713.81;;;5.16;67.52
6132;BME280;3097;42.692;23.278;2024-01-16T13:13:33;94680.09;;;4.79;67.83
6132;BME280;3097;42.692;23.278;2024-01-16T13:16:00;94717.44;;;4.87;67.89
6132;BME280;3097;42.692;23.278;2024-01-16T13:18:27;94722.88;;;4.77;67.27
6132;BME280;3097;42.692;23.278;2024-01-16T13:20:54;94716.16;;;4.70;68.77
6132;BME280;3097;42.692;23.278;2024-01-16T13:23:21;94696.66;;;4.55;69.00
6132;BME280;3097;42.692;23.278;2024-01-16T13:25:48;94736.25;;;4.79;68.32
6132;BME280;3097;42.692;23.278;2024-01-16T13:28:15;94707.88;;;4.61;68.81
6132;BME280;3097;42.692;23.278;2024-01-16T13:30:41;94735.69;;;4.84;68.83
6132;BME280;3097;42.692;23.278;2024-01-16T13:33:07;94734.28;;;4.81;68.85